Time;durP1;ratioP1;P1;durP2;ratioP2;P2;SDS_P1;SDS_P2;PMS_P1;PMS_P2;Temp;Humidity;BMP_temperature;BMP_pressure;BME280_temperature;BME280_humidity;BME280_pressure;Samples;Min_cycle;Max_cycle;Signal;HPM_P1;HPM_P2
2022/10/11 00:00:33;;;;;;;4.20;1.30;;;18.40;60.90;;;;;;5055255;28;20179;-71
2022/10/11 00:03:01;;;;;;;4.40;1.50;;;18.80;60.80;;;;;;5056089;28;20634;-68
2022/10/11 00:05:29;;;;;;;3.40;1.10;;;19.00;59.50;;;;;;5056414;28;20508;-69
2022/10/11 00:07:56;;;;;;;4.17;1.30;;;19.10;57.50;;;;;;5056002;28;20182;-72
2022/10/11 00:10:24;;;;;;;2.60;1.13;;;19.20;57.60;;;;;;5056221;28;20183;-70
2022/10/11 00:12:51;;;;;;;3.20;1.30;;;19.50;57.20;;;;;;5055472;28;20786;-69
2022/10/11 00:15:21;;;;;;;3.07;1.43;;;19.30;56.60;;;;;;5056151;28;20175;-70
2022/10/11 00:17:49;;;;;;;2.73;1.30;;;19.20;56.60;;;;;;5055846;28;20215;-71
2022/10/11 00:20:17;;;;;;;1.70;0.97;;;19.10;56.80;;;;;;5056426;28;20176;-69
2022/10/11 00:22:44;;;;;;;4.10;1.40;;;19.30;57.50;;;;;;5055481;28;20188;-69
2022/10/11 00:25:12;;;;;;;2.40;1.40;;;19.50;56.20;;;;;;5055972;28;20186;-69
2022/10/11 00:27:40;;;;;;;1.47;1.17;;;19.30;56.30;;;;;;5055585;28;20187;-67
2022/10/11 00:30:08;;;;;;;2.67;1.27;;;19.30;55.50;;;;;;5054689;28;20513;-68
2022/10/11 00:32:37;;;;;;;2.93;1.10;;;19.50;56.40;;;;;;5055138;28;20318;-68
2022/10/11 00:35:07;;;;;;;2.73;1.20;;;19.60;55.90;;;;;;5055439;28;20199;-70
2022/10/11 00:37:36;;;;;;;1.50;1.03;;;19.80;54.80;;;;;;5055502;28;20576;-68
2022/10/11 00:40:07;;;;;;;12.60;1.50;;;19.30;55.40;;;;;;5055613;28;20568;-69
2022/10/11 00:42:34;;;;;;;4.10;1.23;;;19.10;55.30;;;;;;5055031;28;20180;-72
2022/10/11 00:45:31;;;;;;;3.33;1.17;;;19.00;56.10;;;;;;5055360;28;20611;-69
2022/10/11 00:48:22;;;;;;;3.87;1.10;;;19.40;55.00;;;;;;5054917;28;20176;-68
2022/10/11 00:50:50;;;;;;;2.73;1.33;;;19.50;55.10;;;;;;5055031;28;20541;-69
2022/10/11 00:53:17;;;;;;;3.37;1.70;;;19.60;54.70;;;;;;5055269;28;20175;-71
2022/10/11 00:56:01;;;;;;;5.40;1.40;;;19.80;55.00;;;;;;5055250;28;20226;-69
2022/10/11 00:58:28;;;;;;;5.53;1.80;;;19.60;55.00;;;;;;5054927;28;20685;-69
2022/10/11 01:00:59;;;;;;;1.97;1.27;;;19.40;55.40;;;;;;5055195;28;20172;-69
2022/10/11 01:03:27;;;;;;;5.70;1.37;;;19.60;56.20;;;;;;5055146;28;20208;-70
2022/10/11 01:05:55;;;;;;;3.00;1.23;;;19.30;56.70;;;;;;5055088;28;20206;-70
2022/10/11 01:08:24;;;;;;;4.90;1.33;;;19.40;57.30;;;;;;5054621;28;20176;-68
2022/10/11 01:10:52;;;;;;;2.03;1.07;;;19.40;56.70;;;;;;5054846;28;20625;-69
2022/10/11 01:13:48;;;;;;;2.10;1.13;;;19.20;56.70;;;;;;5054802;28;20192;-69
2022/10/11 01:16:25;;;;;;;2.20;1.23;;;19.50;57.30;;;;;;5034393;28;20207;-70
2022/10/11 01:19:20;;;;;;;4.43;1.27;;;19.80;56.90;;;;;;5052068;28;20222;-69
2022/10/11 01:22:20;;;;;;;3.03;1.47;;;19.90;55.00;;;;;;5054870;28;20202;-68
2022/10/11 01:24:48;;;;;;;5.57;1.57;;;20.00;53.80;;;;;;5034112;28;20641;-70
2022/10/11 01:27:30;;;;;;;3.17;1.37;;;20.20;54.50;;;;;;5034605;28;20260;-69
2022/10/11 01:30:23;;;;;;;3.97;1.60;;;20.50;54.60;;;;;;5034796;28;20204;-68
2022/10/11 01:33:39;;;;;;;3.37;1.53;;;20.70;53.50;;;;;;5037421;28;20467;-69
2022/10/11 01:36:12;;;;;;;3.00;1.30;;;20.60;53.60;;;;;;5054386;28;20555;-68
2022/10/11 01:38:47;;;;;;;2.50;1.20;;;20.80;53.30;;;;;;5054176;28;20614;-68
2022/10/11 01:41:26;;;;;;;2.90;1.10;;;21.10;52.90;;;;;;5054227;28;20174;-68
2022/10/11 01:43:59;;;;;;;3.10;1.10;;;21.40;52.60;;;;;;5034669;28;20176;-71
2022/10/11 01:46:29;;;;;;;6.10;1.13;;;20.90;52.30;;;;;;5043498;28;20223;-69
2022/10/11 01:48:59;;;;;;;4.93;1.53;;;20.40;53.40;;;;;;5054407;28;20176;-68
2022/10/11 01:51:46;;;;;;;2.67;1.20;;;20.30;54.70;;;;;;5054930;28;20234;-69
2022/10/11 01:54:38;;;;;;;1.93;1.00;;;20.30;55.00;;;;;;5040648;28;20258;-68
2022/10/11 01:57:27;;;;;;;5.27;1.30;;;20.30;55.00;;;;;;5052258;28;20212;-68
2022/10/11 02:00:05;;;;;;;4.30;1.40;;;20.20;54.00;;;;;;5039538;28;20172;-67
2022/10/11 02:02:42;;;;;;;4.33;1.50;;;20.00;54.60;;;;;;5045526;28;20198;-67
2022/10/11 02:05:43;;;;;;;5.23;1.67;;;20.10;53.90;;;;;;5042609;28;20184;-69
2022/10/11 02:08:45;;;;;;;4.07;1.23;;;20.20;53.30;;;;;;5047372;28;20183;-68
2022/10/11 02:11:15;;;;;;;2.00;1.07;;;20.30;53.60;;;;;;5044679;28;20569;-68
2022/10/11 02:13:55;;;;;;;3.57;1.47;;;20.20;53.00;;;;;;5049779;28;20642;-68
2022/10/11 02:16:31;;;;;;;2.30;1.30;;;20.20;53.00;;;;;;5051224;28;20176;-68
2022/10/11 02:19:00;;;;;;;2.10;0.90;;;20.50;52.60;;;;;;5048966;28;20223;-69
2022/10/11 02:21:33;;;;;;;3.43;1.63;;;20.70;51.80;;;;;;5052972;28;20630;-69
2022/10/11 02:24:07;;;;;;;2.97;1.10;;;20.80;52.10;;;;;;5053556;28;20230;-68
2022/10/11 02:26:35;;;;;;;3.27;1.53;;;20.80;51.10;;;;;;5052976;28;20657;-69
2022/10/11 02:29:06;;;;;;;6.93;1.40;;;21.00;51.20;;;;;;5053355;28;20178;-70
2022/10/11 02:31:35;;;;;;;5.60;1.60;;;21.00;50.90;;;;;;5053377;28;20195;-69
2022/10/11 02:34:19;;;;;;;5.87;1.40;;;21.30;51.00;;;;;;5053294;28;20171;-68
2022/10/11 02:36:47;;;;;;;4.90;1.10;;;21.90;50.50;;;;;;5045542;28;20211;-68
2022/10/11 02:39:23;;;;;;;4.27;1.13;;;21.60;49.60;;;;;;5053382;28;20172;-69
2022/10/11 02:41:55;;;;;;;4.93;1.50;;;21.40;50.50;;;;;;5048237;28;20208;-68
2022/10/11 02:44:30;;;;;;;3.27;1.40;;;21.20;50.70;;;;;;5043944;28;20219;-70
2022/10/11 02:47:02;;;;;;;5.83;1.47;;;21.00;50.90;;;;;;5046920;28;20219;-69
2022/10/11 02:49:31;;;;;;;3.23;0.87;;;20.80;51.90;;;;;;5048671;28;20545;-69
2022/10/11 02:51:59;;;;;;;3.20;1.37;;;20.80;52.20;;;;;;5050839;28;20183;-68
2022/10/11 02:54:26;;;;;;;3.57;1.20;;;21.20;50.90;;;;;;5047886;28;20179;-72
2022/10/11 02:56:54;;;;;;;3.30;1.30;;;21.80;49.80;;;;;;5040867;28;20279;-69
2022/10/11 02:59:21;;;;;;;5.33;1.20;;;21.90;48.80;;;;;;5052786;28;20214;-69
2022/10/11 03:01:49;;;;;;;5.43;1.33;;;21.70;49.50;;;;;;5051191;28;20242;-73
2022/10/11 03:04:16;;;;;;;4.80;1.10;;;21.80;49.60;;;;;;5052296;28;20540;-70
2022/10/11 03:06:43;;;;;;;2.23;1.20;;;21.60;50.50;;;;;;5052389;28;20184;-70
2022/10/11 03:09:11;;;;;;;4.97;1.30;;;21.20;50.40;;;;;;5051951;28;20661;-70
2022/10/11 03:11:38;;;;;;;5.33;1.07;;;21.10;51.00;;;;;;5051721;28;20187;-70
2022/10/11 03:14:05;;;;;;;3.00;1.20;;;20.90;51.90;;;;;;5051468;28;20653;-69
2022/10/11 03:16:33;;;;;;;2.83;1.10;;;20.80;52.00;;;;;;5047983;28;20184;-68
2022/10/11 03:19:00;;;;;;;4.73;1.10;;;20.80;53.00;;;;;;5042787;28;20208;-67
2022/10/11 03:21:27;;;;;;;3.77;1.30;;;20.80;53.00;;;;;;5051539;28;20232;-69
2022/10/11 03:23:55;;;;;;;3.53;1.10;;;21.30;53.20;;;;;;5051346;28;20198;-69
2022/10/11 03:26:22;;;;;;;3.10;1.00;;;21.40;51.00;;;;;;5065953;28;20264;-68
2022/10/11 03:28:50;;;;;;;4.30;1.20;;;21.20;51.40;;;;;;5048496;28;20565;-68
2022/10/11 03:31:17;;;;;;;4.33;1.00;;;21.10;51.90;;;;;;5051182;28;20215;-67
2022/10/11 03:33:45;;;;;;;1.73;1.03;;;20.60;53.20;;;;;;5051558;28;20639;-68
2022/10/11 03:36:12;;;;;;;4.37;1.00;;;20.30;53.60;;;;;;5052336;28;20188;-67
2022/10/11 03:38:39;;;;;;;3.80;1.30;;;20.80;53.10;;;;;;5051607;28;20203;-68
2022/10/11 03:41:07;;;;;;;3.60;1.10;;;21.70;50.90;;;;;;5050801;28;20257;-68
2022/10/11 03:43:34;;;;;;;3.50;1.10;;;22.10;49.90;;;;;;5052058;28;20622;-69
2022/10/11 03:46:01;;;;;;;3.90;1.10;;;22.40;49.70;;;;;;5051743;28;20311;-68
2022/10/11 03:48:29;;;;;;;5.60;1.43;;;22.90;48.30;;;;;;5048626;28;20180;-70
2022/10/11 03:50:56;;;;;;;2.53;0.97;;;22.10;49.60;;;;;;5051385;28;20658;-68
2022/10/11 03:53:24;;;;;;;4.20;0.97;;;21.80;50.40;;;;;;5047713;28;20199;-69
2022/10/11 03:55:55;;;;;;;3.70;1.10;;;21.30;51.20;;;;;;5052431;28;20253;-69
2022/10/11 03:58:23;;;;;;;4.40;1.13;;;21.70;50.10;;;;;;5050914;28;20207;-73
2022/10/11 04:00:52;;;;;;;2.90;1.00;;;22.20;48.60;;;;;;5050135;28;20556;-71
2022/10/11 04:03:20;;;;;;;2.77;1.10;;;22.10;49.30;;;;;;5047558;28;20651;-73
2022/10/11 04:05:47;;;;;;;2.53;1.10;;;22.20;49.70;;;;;;5036379;28;20176;-70
2022/10/11 04:08:14;;;;;;;4.87;1.50;;;21.80;49.50;;;;;;5048614;28;20176;-69
2022/10/11 04:10:42;;;;;;;1.60;1.17;;;21.40;50.60;;;;;;5050579;28;20168;-68
2022/10/11 04:13:11;;;;;;;3.83;1.27;;;21.10;51.40;;;;;;5051471;28;20316;-69
2022/10/11 04:15:40;;;;;;;3.57;1.40;;;20.80;52.30;;;;;;5050769;28;20195;-69
2022/10/11 04:18:08;;;;;;;3.33;1.00;;;20.70;52.30;;;;;;5042569;28;20209;-68
2022/10/11 04:20:36;;;;;;;2.13;1.10;;;20.50;52.30;;;;;;5041995;28;20321;-68
2022/10/11 04:23:03;;;;;;;4.50;1.30;;;20.70;53.10;;;;;;5051373;28;20183;-70
2022/10/11 04:25:31;;;;;;;2.90;1.00;;;20.80;52.60;;;;;;5051923;28;20273;-68
2022/10/11 04:27:58;;;;;;;3.33;1.30;;;20.80;52.30;;;;;;5046543;28;20176;-68
2022/10/11 04:30:25;;;;;;;3.93;1.47;;;20.80;52.00;;;;;;5051740;28;20184;-68
2022/10/11 04:32:53;;;;;;;3.53;1.10;;;20.80;52.70;;;;;;5051563;28;20325;-68
2022/10/11 04:35:20;;;;;;;4.03;1.40;;;20.90;51.50;;;;;;5050584;28;20180;-69
2022/10/11 04:37:47;;;;;;;4.63;1.23;;;20.80;52.40;;;;;;5054668;28;20710;-67
2022/10/11 04:40:15;;;;;;;5.77;1.33;;;20.30;53.00;;;;;;5049610;28;20648;-68
2022/10/11 04:42:42;;;;;;;2.93;1.40;;;20.30;53.90;;;;;;5050519;28;20537;-68
2022/10/11 04:45:10;;;;;;;10.93;7.93;;;20.30;54.00;;;;;;5049589;28;20272;-68
2022/10/11 04:47:39;;;;;;;3.67;1.33;;;20.00;54.70;;;;;;5040150;28;20677;-67
2022/10/11 04:50:07;;;;;;;4.00;1.10;;;20.00;54.10;;;;;;5053374;28;20191;-67
2022/10/11 04:52:34;;;;;;;1.93;1.30;;;20.00;54.50;;;;;;5055371;28;20183;-68
2022/10/11 04:55:01;;;;;;;5.63;1.40;;;20.00;54.70;;;;;;5055420;28;20238;-68
2022/10/11 04:57:29;;;;;;;3.03;1.30;;;19.90;54.60;;;;;;5039964;28;20259;-68
2022/10/11 04:59:56;;;;;;;3.40;1.10;;;19.70;55.20;;;;;;5054677;28;20697;-69
2022/10/11 05:02:23;;;;;;;4.40;1.20;;;19.70;55.80;;;;;;5046842;28;20241;-69
2022/10/11 05:04:51;;;;;;;11.93;5.10;;;19.70;55.10;;;;;;5054670;28;20549;-69
2022/10/11 05:07:18;;;;;;;5.83;1.20;;;19.70;54.70;;;;;;5055091;28;20686;-69
2022/10/11 05:09:45;;;;;;;2.50;1.30;;;19.70;55.30;;;;;;5054939;28;20183;-68
2022/10/11 05:12:13;;;;;;;4.23;1.10;;;19.70;55.50;;;;;;5054792;28;20204;-68
2022/10/11 05:14:40;;;;;;;3.73;1.30;;;19.70;54.40;;;;;;5054807;28;20172;-69
2022/10/11 05:17:08;;;;;;;4.63;1.40;;;19.60;55.00;;;;;;5054881;28;20196;-69
2022/10/11 05:19:35;;;;;;;5.53;1.70;;;19.60;54.40;;;;;;5054657;28;20581;-72
2022/10/11 05:22:02;;;;;;;4.27;1.27;;;19.70;54.00;;;;;;5054755;28;20180;-69
2022/10/11 05:24:30;;;;;;;3.13;1.30;;;19.70;53.50;;;;;;5057985;28;20504;-71
2022/10/11 05:26:57;;;;;;;2.43;1.30;;;19.50;53.60;;;;;;5054289;28;20172;-72
2022/10/11 05:29:24;;;;;;;2.80;1.33;;;19.60;53.00;;;;;;5054536;28;20191;-70
2022/10/11 05:31:52;;;;;;;4.07;1.50;;;19.90;52.50;;;;;;5054517;28;20183;-72
2022/10/11 05:34:19;;;;;;;2.57;1.33;;;20.00;52.10;;;;;;5054457;28;20189;-69
2022/10/11 05:36:46;;;;;;;1.40;1.10;;;19.90;52.00;;;;;;5054129;28;20176;-72
2022/10/11 05:39:14;;;;;;;4.33;1.60;;;19.80;52.10;;;;;;5054635;28;20233;-69
2022/10/11 05:41:41;;;;;;;2.77;1.20;;;20.00;52.10;;;;;;5054292;28;20172;-67
2022/10/11 05:44:09;;;;;;;4.00;1.40;;;20.60;50.60;;;;;;5054320;28;20203;-69
2022/10/11 05:46:36;;;;;;;5.67;1.20;;;22.00;46.50;;;;;;5053957;28;20231;-70
2022/10/11 05:49:03;;;;;;;2.77;1.20;;;23.10;44.40;;;;;;5054247;28;20685;-72
2022/10/11 05:51:31;;;;;;;3.40;1.20;;;22.90;43.80;;;;;;5054259;28;20237;-72
2022/10/11 05:53:58;;;;;;;4.87;1.20;;;23.30;42.50;;;;;;5053423;28;20660;-71
2022/10/11 05:56:26;;;;;;;4.73;1.30;;;23.70;41.90;;;;;;5054336;28;20536;-70
2022/10/11 05:58:54;;;;;;;2.70;0.80;;;23.20;42.60;;;;;;5052424;28;20277;-69
2022/10/11 06:01:24;;;;;;;4.53;1.20;;;23.10;43.50;;;;;;5048337;28;20223;-70
2022/10/11 06:03:51;;;;;;;4.33;1.20;;;23.30;44.00;;;;;;5044860;28;20176;-69
2022/10/11 06:06:19;;;;;;;2.07;0.97;;;22.60;46.10;;;;;;5047709;28;20172;-68
2022/10/11 06:08:47;;;;;;;3.83;1.30;;;22.90;45.70;;;;;;5053249;28;20191;-67
2022/10/11 06:11:26;;;;;;;4.90;1.90;;;22.40;46.40;;;;;;5053818;28;20267;-69
2022/10/11 06:13:58;;;;;;;6.93;1.27;;;22.80;46.30;;;;;;5053507;28;20179;-68
2022/10/11 06:16:25;;;;;;;3.87;1.10;;;23.20;45.50;;;;;;5049364;28;20270;-69
2022/10/11 06:18:54;;;;;;;3.00;1.13;;;23.60;44.70;;;;;;5044084;28;20573;-70
2022/10/11 06:21:22;;;;;;;7.13;1.37;;;23.50;44.10;;;;;;5047040;28;20528;-69
2022/10/11 06:23:51;;;;;;;4.97;1.53;;;23.10;44.80;;;;;;5054553;28;20180;-68
2022/10/11 06:26:19;;;;;;;2.97;1.20;;;23.40;43.50;;;;;;5053228;28;20226;-67
2022/10/11 06:28:46;;;;;;;5.43;1.47;;;22.90;43.50;;;;;;5045922;28;20191;-67
2022/10/11 06:31:14;;;;;;;3.43;1.00;;;23.10;44.00;;;;;;5052494;28;20187;-69
2022/10/11 06:33:41;;;;;;;4.27;1.10;;;23.00;44.60;;;;;;5056428;28;20176;-70
2022/10/11 06:36:13;;;;;;;2.27;0.90;;;23.30;43.90;;;;;;5051080;28;20191;-70
2022/10/11 06:38:40;;;;;;;4.30;1.43;;;23.30;44.30;;;;;;5052921;28;20226;-68
2022/10/11 06:41:19;;;;;;;4.43;1.00;;;23.40;44.30;;;;;;5053310;28;20458;-67
2022/10/11 06:43:48;;;;;;;4.67;1.20;;;23.00;44.90;;;;;;5052712;28;20179;-68
2022/10/11 06:46:17;;;;;;;3.70;1.33;;;23.10;44.80;;;;;;5052800;28;20273;-68
2022/10/11 06:48:46;;;;;;;3.77;1.27;;;22.90;45.30;;;;;;5052228;28;20660;-68
2022/10/11 06:51:15;;;;;;;2.30;1.00;;;23.20;45.70;;;;;;5051831;28;20187;-69
2022/10/11 06:53:43;;;;;;;2.57;1.30;;;23.10;46.10;;;;;;5052724;28;20190;-70
2022/10/11 06:56:12;;;;;;;4.90;1.30;;;22.50;46.80;;;;;;5058182;28;20325;-66
2022/10/11 06:58:40;;;;;;;4.57;1.30;;;22.00;48.90;;;;;;5051266;28;20238;-70
2022/10/11 07:01:10;;;;;;;2.37;1.00;;;22.00;49.00;;;;;;5037632;28;20715;-69
2022/10/11 07:03:37;;;;;;;3.73;1.60;;;22.50;48.40;;;;;;5051096;28;20314;-68
2022/10/11 07:06:08;;;;;;;4.77;1.30;;;22.90;47.20;;;;;;5046009;28;20267;-69
2022/10/11 07:08:36;;;;;;;3.77;1.57;;;22.90;47.60;;;;;;5038318;28;20178;-69
2022/10/11 07:11:06;;;;;;;4.30;1.40;;;22.40;48.70;;;;;;5052511;28;20326;-66
2022/10/11 07:13:33;;;;;;;4.90;1.40;;;21.90;48.90;;;;;;5052212;28;20237;-68
2022/10/11 07:16:06;;;;;;;4.43;1.43;;;21.60;50.00;;;;;;5052697;28;20539;-68
2022/10/11 07:18:34;;;;;;;4.27;1.80;;;21.80;49.30;;;;;;5051734;28;20227;-67
2022/10/11 07:21:07;;;;;;;5.27;1.60;;;21.70;49.30;;;;;;5052500;28;21080;-71
2022/10/11 07:23:35;;;;;;;5.47;1.30;;;21.30;49.90;;;;;;5047974;28;20259;-72
2022/10/11 07:26:03;;;;;;;4.97;1.37;;;20.80;51.30;;;;;;5052419;28;20182;-68
2022/10/11 07:28:31;;;;;;;1.93;1.20;;;20.40;52.00;;;;;;5049712;28;20646;-67
2022/10/11 07:30:58;;;;;;;4.60;1.20;;;19.90;53.50;;;;;;5049163;28;20271;-68
2022/10/11 07:33:26;;;;;;;3.23;1.50;;;19.60;54.60;;;;;;5050657;28;20190;-68
2022/10/11 07:35:57;;;;;;;5.33;1.60;;;19.30;56.10;;;;;;5051748;28;20263;-65
2022/10/11 07:38:24;;;;;;;4.57;1.70;;;18.90;57.40;;;;;;5049164;28;20666;-69
2022/10/11 07:40:52;;;;;;;3.57;1.60;;;18.50;57.90;;;;;;5051386;28;20198;-70
2022/10/11 07:43:19;;;;;;;3.87;2.10;;;18.30;58.10;;;;;;5059211;28;20721;-68
2022/10/11 07:45:50;;;;;;;5.23;2.60;;;18.30;58.90;;;;;;5057792;28;20281;-70
2022/10/11 07:48:17;;;;;;;5.77;2.30;;;18.20;59.60;;;;;;5052365;28;20185;-70
2022/10/11 07:50:44;;;;;;;4.87;1.77;;;18.00;60.20;;;;;;5049314;28;20630;-68
2022/10/11 07:53:12;;;;;;;4.23;1.43;;;18.00;60.50;;;;;;5050332;28;20202;-68
2022/10/11 07:55:39;;;;;;;4.80;1.97;;;17.80;61.10;;;;;;5047238;28;20183;-68
2022/10/11 07:58:08;;;;;;;4.77;2.13;;;17.70;61.90;;;;;;5051578;28;20204;-69
2022/10/11 08:00:36;;;;;;;4.83;1.90;;;17.70;62.30;;;;;;5050939;28;20176;-74
2022/10/11 08:03:07;;;;;;;4.23;1.90;;;17.60;62.90;;;;;;5037881;28;20605;-68
2022/10/11 08:05:36;;;;;;;5.53;2.00;;;17.50;63.00;;;;;;5049635;28;20240;-73
2022/10/11 08:08:03;;;;;;;3.87;2.07;;;17.40;63.70;;;;;;5039765;28;20187;-69
2022/10/11 08:10:36;;;;;;;5.03;1.80;;;17.40;63.90;;;;;;5052097;28;20233;-68
2022/10/11 08:13:03;;;;;;;5.70;2.23;;;17.40;64.10;;;;;;5051928;28;20210;-68
2022/10/11 08:15:30;;;;;;;6.33;1.90;;;17.30;63.90;;;;;;5051860;28;20361;-72
2022/10/11 08:17:58;;;;;;;5.83;2.53;;;17.20;64.20;;;;;;5052760;28;20223;-75
2022/10/11 08:20:25;;;;;;;3.77;2.27;;;17.20;64.50;;;;;;5056348;28;20295;-70
2022/10/11 08:22:52;;;;;;;7.83;2.83;;;17.20;64.80;;;;;;5050441;28;20204;-68
2022/10/11 08:25:20;;;;;;;8.93;2.37;;;17.10;65.40;;;;;;5055450;28;20526;-70
2022/10/11 08:27:47;;;;;;;6.13;2.53;;;17.10;65.30;;;;;;5055280;28;20285;-69
2022/10/11 08:30:14;;;;;;;4.97;2.33;;;17.10;66.00;;;;;;5053779;28;20262;-69
2022/10/11 08:32:42;;;;;;;6.23;2.43;;;17.00;66.10;;;;;;5055572;28;20168;-69
2022/10/11 08:35:09;;;;;;;5.63;1.67;;;17.00;66.20;;;;;;5051638;28;20186;-70
2022/10/11 08:37:36;;;;;;;3.83;1.93;;;17.00;66.90;;;;;;5054437;28;20218;-72
2022/10/11 08:40:05;;;;;;;4.33;2.40;;;17.00;67.10;;;;;;5055314;28;20186;-68
2022/10/11 08:42:43;;;;;;;7.90;2.00;;;16.90;67.40;;;;;;5052743;28;20218;-69
2022/10/11 08:45:24;;;;;;;8.70;2.33;;;16.90;67.80;;;;;;5053362;28;20190;-68
2022/10/11 08:48:01;;;;;;;8.50;2.50;;;16.80;68.40;;;;;;5043524;28;20239;-68
2022/10/11 08:50:29;;;;;;;7.70;2.63;;;16.80;68.70;;;;;;5053116;28;20229;-68
2022/10/11 08:53:03;;;;;;;6.33;1.83;;;16.90;69.10;;;;;;5054316;28;20207;-69
2022/10/11 08:55:46;;;;;;;5.77;1.93;;;16.80;69.00;;;;;;5054218;28;20224;-70
2022/10/11 08:58:29;;;;;;;5.57;1.87;;;16.80;69.50;;;;;;5054206;28;20344;-69
2022/10/11 09:00:57;;;;;;;5.77;2.07;;;16.70;69.60;;;;;;5054213;28;20259;-71
2022/10/11 09:03:46;;;;;;;4.60;2.00;;;16.80;69.80;;;;;;5054816;28;20187;-69
2022/10/11 09:06:28;;;;;;;10.10;3.30;;;16.80;70.50;;;;;;5053654;28;20179;-70
2022/10/11 09:09:00;;;;;;;7.43;2.20;;;16.80;70.80;;;;;;5055205;28;20200;-69
2022/10/11 09:12:09;;;;;;;7.33;1.87;;;16.70;71.10;;;;;;5055202;28;20276;-70
2022/10/11 09:15:02;;;;;;;7.97;2.80;;;16.70;72.00;;;;;;5054303;28;20206;-69
2022/10/11 09:17:43;;;;;;;6.63;2.40;;;16.60;72.20;;;;;;5054987;28;20252;-68
2022/10/11 09:20:26;;;;;;;7.90;2.63;;;16.60;72.30;;;;;;5054554;28;20237;-69
2022/10/11 09:23:05;;;;;;;6.87;2.40;;;16.60;72.20;;;;;;5049211;28;20514;-72
2022/10/11 09:25:48;;;;;;;5.73;2.50;;;16.50;72.90;;;;;;5054670;28;20278;-68
2022/10/11 09:28:43;;;;;;;7.83;2.47;;;16.50;73.00;;;;;;5053931;28;20191;-71
2022/10/11 09:31:11;;;;;;;10.13;2.50;;;16.50;73.10;;;;;;5054845;28;20229;-71
2022/10/11 09:33:48;;;;;;;3.77;2.20;;;16.50;73.30;;;;;;5054047;28;20649;-75
2022/10/11 09:36:32;;;;;;;8.67;2.73;;;16.50;73.30;;;;;;5054177;28;20205;-72
2022/10/11 09:39:21;;;;;;;7.70;2.40;;;16.40;73.40;;;;;;5054320;28;20236;-74
2022/10/11 09:41:54;;;;;;;6.10;2.20;;;16.40;73.40;;;;;;5054759;28;20542;-71
2022/10/11 09:44:26;;;;;;;10.90;3.00;;;16.30;73.60;;;;;;5053846;28;20676;-68
2022/10/11 09:46:56;;;;;;;7.43;2.47;;;16.40;73.80;;;;;;5041404;28;20321;-71
2022/10/11 09:49:30;;;;;;;4.93;2.00;;;16.30;73.50;;;;;;5054199;28;20262;-73
2022/10/11 09:52:00;;;;;;;6.90;2.10;;;16.30;74.00;;;;;;5052671;28;20236;-75
2022/10/11 09:54:49;;;;;;;4.30;2.30;;;16.30;74.10;;;;;;5051384;28;20174;-72
2022/10/11 09:57:38;;;;;;;5.83;2.03;;;16.30;74.30;;;;;;5054230;28;20204;-69
2022/10/11 10:00:11;;;;;;;5.43;2.23;;;16.30;74.50;;;;;;5053253;28;20240;-73
2022/10/11 10:02:45;;;;;;;6.30;2.20;;;16.30;74.60;;;;;;5053341;28;20542;-69
2022/10/11 10:05:24;;;;;;;7.07;2.47;;;16.30;74.90;;;;;;5052696;28;20176;-69
2022/10/11 10:08:08;;;;;;;11.13;2.53;;;16.20;75.20;;;;;;5040597;28;20627;-68
2022/10/11 10:10:40;;;;;;;5.70;2.10;;;16.20;75.40;;;;;;5053539;28;20222;-70
2022/10/11 10:13:21;;;;;;;6.03;2.17;;;16.30;75.50;;;;;;5053477;28;20214;-69
2022/10/11 10:15:52;;;;;;;8.80;1.73;;;16.30;75.70;;;;;;5053777;28;20175;-71
2022/10/11 10:18:33;;;;;;;6.47;1.87;;;16.30;75.60;;;;;;5053748;28;20199;-71
2022/10/11 10:21:01;;;;;;;6.77;2.00;;;16.30;75.60;;;;;;5052221;28;20188;-70
2022/10/11 10:23:34;;;;;;;5.40;1.80;;;16.30;75.80;;;;;;5044236;28;20194;-69
2022/10/11 10:26:13;;;;;;;6.10;1.97;;;16.30;75.90;;;;;;5053623;28;20256;-70
2022/10/11 10:29:00;;;;;;;6.30;1.67;;;16.30;76.10;;;;;;5052663;28;20194;-70
2022/10/11 10:31:38;;;;;;;8.27;1.63;;;16.30;76.30;;;;;;5053275;28;20248;-68
2022/10/11 10:34:22;;;;;;;7.47;2.00;;;16.30;76.00;;;;;;5048184;28;20191;-70
2022/10/11 10:37:15;;;;;;;7.27;2.07;;;16.20;76.20;;;;;;5050947;28;20213;-69
2022/10/11 10:40:01;;;;;;;5.33;2.13;;;16.20;76.50;;;;;;5046587;28;20210;-69
2022/10/11 10:42:29;;;;;;;4.53;1.67;;;16.20;76.30;;;;;;5052097;28;20229;-70
2022/10/11 10:44:58;;;;;;;5.57;1.60;;;16.20;76.40;;;;;;5050046;28;20187;-69
2022/10/11 10:47:42;;;;;;;4.63;1.70;;;16.10;76.10;;;;;;5051793;28;20236;-69
2022/10/11 10:50:34;;;;;;;8.13;1.97;;;16.00;76.30;;;;;;5051700;28;20292;-70
2022/10/11 10:53:18;;;;;;;3.57;1.77;;;16.10;76.30;;;;;;5052743;28;20609;-70
2022/10/11 10:55:51;;;;;;;8.13;1.63;;;16.00;76.40;;;;;;5050004;28;20192;-69
2022/10/11 10:58:43;;;;;;;6.63;2.13;;;16.00;76.30;;;;;;5051805;28;20296;-69
2022/10/11 11:01:23;;;;;;;9.97;1.70;;;16.00;76.30;;;;;;5053290;28;20531;-70
2022/10/11 11:04:11;;;;;;;4.27;1.63;;;15.90;76.30;;;;;;5053029;28;20181;-72
2022/10/11 11:06:45;;;;;;;5.90;1.73;;;16.00;76.40;;;;;;5050314;28;20179;-70
2022/10/11 11:09:15;;;;;;;4.40;1.50;;;16.00;76.60;;;;;;5051218;28;20181;-70
2022/10/11 11:12:01;;;;;;;3.83;1.30;;;16.10;76.60;;;;;;5052984;28;20533;-70
2022/10/11 11:14:34;;;;;;;6.53;1.90;;;16.10;76.50;;;;;;5051792;28;20228;-71
2022/10/11 11:17:41;;;;;;;6.40;1.50;;;16.10;76.50;;;;;;5052443;28;20179;-69
2022/10/11 11:20:08;;;;;;;5.03;1.47;;;16.10;76.40;;;;;;5047125;28;20185;-69
2022/10/11 11:22:59;;;;;;;4.93;1.40;;;16.10;76.40;;;;;;5041472;28;20188;-69
2022/10/11 11:25:57;;;;;;;7.07;1.87;;;16.10;76.70;;;;;;5052295;28;20178;-69
2022/10/11 11:28:42;;;;;;;9.37;1.97;;;16.20;76.80;;;;;;5052114;28;20180;-71
2022/10/11 11:31:13;;;;;;;13.87;2.37;;;16.20;76.70;;;;;;5053011;28;20233;-69
2022/10/11 11:34:16;;;;;;;9.13;2.27;;;16.20;76.90;;;;;;5052832;28;20566;-69
2022/10/11 11:37:07;;;;;;;15.07;2.67;;;16.20;77.00;;;;;;5053167;28;20207;-70
2022/10/11 11:39:52;;;;;;;9.37;2.50;;;16.20;76.70;;;;;;5045489;28;20258;-71
2022/10/11 11:42:25;;;;;;;13.10;2.97;;;16.20;76.90;;;;;;5051782;28;20233;-69
2022/10/11 11:44:53;;;;;;;15.53;2.47;;;16.20;76.80;;;;;;5051631;28;20183;-69
2022/10/11 11:47:28;;;;;;;5.50;2.00;;;16.20;77.00;;;;;;5052268;28;20218;-69
2022/10/11 11:50:17;;;;;;;9.80;2.10;;;16.30;77.00;;;;;;5051655;28;20213;-69
2022/10/11 11:53:07;;;;;;;6.53;1.80;;;16.20;76.90;;;;;;5054321;28;20187;-69
2022/10/11 11:55:57;;;;;;;8.40;1.43;;;16.20;77.10;;;;;;5061197;28;20194;-69
2022/10/11 11:58:30;;;;;;;4.23;1.60;;;16.10;77.10;;;;;;5049727;28;20207;-68
2022/10/11 12:01:01;;;;;;;8.27;1.73;;;16.10;77.30;;;;;;5055823;28;20593;-72
2022/10/11 12:03:42;;;;;;;9.57;1.67;;;16.10;77.40;;;;;;5052103;28;20190;-68
2022/10/11 12:06:22;;;;;;;3.83;1.33;;;16.20;77.40;;;;;;5049496;28;20199;-68
2022/10/11 12:09:19;;;;;;;6.60;1.40;;;16.20;77.50;;;;;;5054693;28;20530;-69
2022/10/11 12:11:54;;;;;;;6.97;1.50;;;16.20;77.40;;;;;;5053948;28;20219;-70
2022/10/11 12:14:31;;;;;;;5.43;1.33;;;16.20;77.10;;;;;;5049284;28;20668;-68
2022/10/11 12:17:13;;;;;;;4.90;1.10;;;16.20;77.00;;;;;;5049645;28;20179;-69
2022/10/11 12:19:57;;;;;;;6.07;1.63;;;16.20;77.10;;;;;;5055801;28;20211;-68
2022/10/11 12:22:28;;;;;;;5.93;1.53;;;16.20;77.10;;;;;;5056474;28;20205;-68
2022/10/11 12:25:01;;;;;;;4.50;1.33;;;16.20;76.90;;;;;;5056358;28;20190;-69
2022/10/11 12:27:50;;;;;;;5.70;1.60;;;16.20;76.60;;;;;;5056480;28;20299;-68
2022/10/11 12:30:54;;;;;;;4.90;1.10;;;16.20;76.70;;;;;;5055864;28;20191;-68
2022/10/11 12:33:44;;;;;;;6.37;1.30;;;16.20;76.60;;;;;;5055469;28;20225;-68
2022/10/11 12:36:35;;;;;;;4.60;1.13;;;16.20;76.50;;;;;;5051774;28;20689;-69
2022/10/11 12:39:38;;;;;;;5.13;1.20;;;16.20;76.50;;;;;;5051008;28;20304;-67
2022/10/11 12:42:29;;;;;;;5.73;1.47;;;16.20;76.40;;;;;;5055969;28;20178;-68
2022/10/11 12:45:14;;;;;;;2.53;1.03;;;16.10;76.40;;;;;;5051939;28;20187;-68
2022/10/11 12:47:55;;;;;;;3.43;1.30;;;16.10;76.40;;;;;;5050871;28;20199;-67
2022/10/11 12:50:29;;;;;;;4.97;1.57;;;16.10;76.50;;;;;;5055887;28;20179;-68
2022/10/11 12:53:16;;;;;;;5.60;1.57;;;16.10;76.30;;;;;;5055325;28;20584;-68
2022/10/11 12:56:01;;;;;;;7.03;1.90;;;16.00;76.20;;;;;;5046331;28;20181;-68
2022/10/11 12:58:40;;;;;;;6.93;1.20;;;16.10;76.60;;;;;;5041928;28;20202;-69
2022/10/11 13:01:09;;;;;;;4.90;1.20;;;16.10;77.10;;;;;;5050388;28;20202;-69
2022/10/11 13:03:41;;;;;;;4.43;1.50;;;16.00;77.40;;;;;;5054298;28;20200;-70
2022/10/11 13:06:19;;;;;;;3.03;1.40;;;16.00;77.70;;;;;;5055240;28;20183;-69
2022/10/11 13:09:13;;;;;;;4.90;1.20;;;15.90;78.10;;;;;;5058383;28;20186;-68
2022/10/11 13:12:03;;;;;;;7.00;2.13;;;15.90;78.70;;;;;;5054981;28;20553;-70
2022/10/11 13:14:41;;;;;;;10.07;1.83;;;15.80;78.80;;;;;;5048983;28;20195;-70
2022/10/11 13:17:31;;;;;;;6.90;1.37;;;15.80;78.90;;;;;;5035872;28;20595;-70
2022/10/11 13:20:15;;;;;;;3.53;1.47;;;15.70;79.30;;;;;;5050996;28;20179;-69